Terminal Aerodrome Forecast
Issued by NWS

Home | Current Version | Previous Version | Text Only | Print | Product List | Glossary On
Versions: 1 2 3 4 5 6 7 8 9 10 11 12 13 14 15 16 17 18 19 20 21 22 23 24 25 26
000
FTUS41 KBUF 201740
TAFIAG
TAF
KIAG 201740Z 2018/2118 12004KT P6SM OVC110
     FM201900 12005KT 4SM -RA BR SCT025 OVC045
     FM202300 17004KT P6SM VCSH OVC012
     FM210200 21006KT 2SM -DZ BR OVC007
     FM211300 18004KT 3SM BR OVC007
     FM211600 14004KT P6SM OVC007=

USA.gov is the U.S. government's official web portal to all federal, state and local government web resources and services.